Mechanicsburg, Vermont
Current Conditions -  °F | °C
As of 6:54 AM on Monday 22 Dec 2014 (Local Time) from KBTV Reporting Station
Haze Haze  
Wind Chill: 17°   Ceiling: 3300
Heat Index: 24°   Visibility: 5mi
Dew Point: 20°   Wind: 6mph
Humidity: 84%   Direction: 350°N
Pressure: 30.38"   Gusts: NA
Location:  44.3224°N, 73.1146°W
Report Text: KBTV 221154Z 35005KT 5SM BR OVC033 M04/M07 A3038 RMK AO2 SLP294 4/006 T10441067 11033 21044 50006
Loading
Personal Weather Stations






























Interactive Weather Map New forecast layout! Learn more

10-Day Weather Forecast

Advertisements
Track Severe Weather on mobile